Latest Weather Observations for Leonora Airport

IDW60801

Issued at 11:14 pm WST Saturday 23 January 2021 (issued every 10 minutes, with the page automatically refreshed every 10 minutes)

About weather observations | Map of weather stations | Latest weather observations for WA | Other Formats
Station Details ID: 012241 Name: LEONORA AERO Lat: -28.88 Lon: 121.32 Height: 370.0 m
Data from the previous 72 hours. | See also: Recent months at Leonora Airport
Date/Time
WST
Temp
°C
App
Temp
°C
Dew
Point
°C
Rel
Hum
%
Delta-T
°C
Wind Press
QNH
hPa
Press
MSL
hPa
Rain since
9am
mm
Dir  Spd
km/h
Gust
km/h
Spd
kts
Gust
kts
23/11:00pm 29.0 25.9 16.5 46 7.9 NE 28 41 15 22 1002.4 999.6 0.0
23/10:30pm 30.4 27.6 15.3 40 9.4 NE 24 33 13 18 1002.5 999.7 0.0
23/10:00pm 31.2 28.8 14.4 36 10.4 NNE 20 32 11 17 1002.6 999.8 0.0
23/09:30pm 31.6 28.0 14.3 35 10.7 NNE 26 33 14 18 1002.4 999.6 0.0
23/09:00pm 32.0 28.8 14.2 34 11.0 NNE 24 33 13 18 1002.4 999.6 0.0
23/08:30pm 32.5 29.6 14.1 32 11.4 NNE 22 28 12 15 1002.3 999.5 0.0
23/08:00pm 33.2 29.5 13.8 31 12.0 NNE 26 35 14 19 1002.1 999.3 0.0
23/07:30pm 34.3 31.5 12.6 27 13.2 N 19 22 10 12 1001.5 998.7 0.0
23/07:00pm 34.6 32.5 12.3 26 13.6 N 15 20 8 11 1001.4 998.6 0.0
23/06:30pm 35.3 32.6 12.9 26 13.7 N 19 26 10 14 1001.3 998.5 0.0
23/06:00pm 35.4 33.7 12.4 25 14.1 NNW 13 20 7 11 1001.2 998.4 0.0
23/05:30pm 35.7 33.3 12.6 25 14.1 NNW 17 28 9 15 1000.9 998.2 0.0
23/05:00pm 35.8 34.4 13.3 26 14.0 NW 13 20 7 11 1000.9 998.2 0.0
23/04:30pm 36.5 35.1 13.3 25 14.4 NNE 13 24 7 13 1000.9 998.2 0.0
23/04:00pm 35.1 33.5 12.7 26 13.8 N 13 30 7 16 1001.2 998.4 0.0
23/03:30pm 34.7 33.0 13.5 28 13.1 N 15 24 8 13 1001.5 998.7 0.0
23/03:00pm 34.7 32.6 13.5 28 13.1 NNW 17 35 9 19 1001.7 998.9 0.0
23/02:30pm 35.0 32.6 14.3 29 12.9 NNW 20 35 11 19 1001.9 999.1 0.0
23/02:00pm 35.2 32.8 14.5 29 13.0 N 20 32 11 17 1002.5 999.7 0.0
23/01:30pm 33.5 30.8 14.5 31 11.9 NNW 22 50 12 27 1002.6 999.8 0.0
23/01:00pm 34.2 30.9 15.1 31 12.1 N 26 39 14 21 1003.1 1000.4 0.0
23/12:30pm 32.6 28.8 14.7 34 11.2 N 28 39 15 21 1003.3 1000.6 0.0
23/12:00pm 33.1 30.2 15.1 33 11.3 N 24 35 13 19 1003.8 1001.1 0.0
23/11:30am 31.9 28.2 15.0 36 10.6 N 28 46 15 25 1004.4 1001.6 0.0
23/11:29am 31.5 27.7 14.6 36 10.5 N 28 46 15 25 1004.5 1001.7 0.0
23/11:00am 31.5 27.4 15.0 36 10.3 N 30 41 16 22 1004.8 1002.0 0.0
23/10:30am 31.5 27.2 15.5 38 10.1 N 32 48 17 26 1005.1 1002.3 0.0
23/10:25am 31.6 27.7 15.5 37 10.1 N 30 48 16 26 1005.1 1002.3 0.0
23/10:00am 30.9 27.0 16.5 42 9.2 NNE 32 46 17 25 1005.4 1002.7 0.0
23/09:30am 30.5 27.2 16.9 44 8.7 NNE 30 44 16 24 1005.6 1002.9 0.0
23/09:00am 29.2 25.9 16.0 44 8.3 NNE 28 39 15 21 1005.9 1003.2 0.0
23/08:30am 28.2 25.3 17.1 51 7.1 N 28 35 15 19 1006.0 1003.3 0.0
23/08:00am 27.7 24.7 16.9 51 6.9 N 28 35 15 19 1006.3 1003.6 0.0
23/07:30am 26.0 25.2 17.1 58 5.6 NNE 17 26 9 14 1006.2 1003.5 0.0
23/07:00am 25.2 25.0 17.7 63 4.8 NNE 15 20 8 11 1006.1 1003.4 0.0
23/06:30am 24.4 25.0 17.6 66 4.3 NNE 11 17 6 9 1005.8 1003.1 0.0
23/06:00am 23.6 26.2 17.6 69 3.8 CALM 0 0 0 0 1006.0 1003.3 0.0
23/05:30am 23.5 23.6 17.5 69 3.8 NE 13 20 7 11 1005.0 1002.2 0.0
23/05:00am 23.8 24.6 17.3 67 4.1 ENE 9 13 5 7 1004.4 1001.6 0.0
23/04:30am 24.1 25.4 17.1 65 4.4 NNE 6 9 3 5 1004.2 1001.4 0.0
23/04:00am 24.5 25.2 17.0 63 4.7 NE 9 11 5 6 1003.7 1001.0 0.0
23/03:30am 24.3 26.7 17.1 64 4.5 CALM 0 2 0 1 1003.4 1000.7 0.0
23/03:00am 24.4 25.7 17.1 63 4.6 SSW 6 7 3 4 1003.7 1001.0 0.0
23/02:30am 24.5 25.6 17.0 63 4.7 WSW 7 9 4 5 1003.8 1001.1 0.0
23/02:00am 24.5 24.9 17.2 63 4.6 N 11 15 6 8 1003.9 1001.2 0.0
23/01:30am 24.3 24.0 17.3 65 4.4 N 15 20 8 11 1004.6 1001.8 0.0
23/01:00am 24.2 23.0 17.4 65 4.3 N 20 30 11 16 1005.4 1002.7 0.0
23/12:30am 24.1 21.3 17.4 66 4.2 N 28 37 15 20 1006.1 1003.4 0.0
23/12:00am 24.6 20.6 16.8 62 4.9 NNE 33 46 18 25 1006.1 1003.4 0.0
 
Date/Time
WST
Temp
°C
App
Temp
°C
Dew
Point
°C
Rel
Hum
%
Delta-T
°C
Wind Press
QNH
hPa
Press
MSL
hPa
Rain since
9am
mm
Dir  Spd
km/h
Gust
km/h
Spd
kts
Gust
kts
22/11:30pm 25.2 21.9 17.1 60 5.1 NNE 30 43 16 23 1006.3 1003.6 0.0
22/11:00pm 25.3 21.5 17.2 61 5.1 NNE 33 46 18 25 1005.8 1003.1 0.0
22/10:30pm 25.8 23.1 16.6 56 5.8 NNE 26 35 14 19 1005.8 1003.1 0.0
22/10:00pm 26.0 24.3 16.3 55 6.1 NE 20 28 11 15 1005.5 1002.8 0.0
22/09:30pm 26.2 23.5 15.6 52 6.5 NE 24 33 13 18 1005.6 1002.9 0.0
22/09:00pm 26.3 23.6 15.7 52 6.6 NE 24 33 13 18 1006.2 1003.5 0.0
22/08:30pm 26.3 23.0 16.0 53 6.4 NE 28 37 15 20 1006.4 1003.7 0.0
22/08:00pm 26.6 23.1 15.6 50 6.8 NE 28 37 15 20 1006.7 1004.0 0.0
22/07:30pm 26.4 24.2 16.9 56 6.0 NE 24 35 13 19 1006.3 1003.6 0.0
22/07:00pm 26.1 22.5 17.2 58 5.6 NE 32 44 17 24 1005.6 1002.9 0.0
22/06:30pm 27.1 23.1 16.1 51 6.9 NNE 32 41 17 22 1005.3 1002.6 0.0
22/06:00pm 28.8 24.3 15.0 43 8.6 N 32 46 17 25 1005.0 1002.2 0.0
22/05:30pm 29.5 24.1 16.0 44 8.5 N 39 52 21 28 1004.6 1001.8 0.0
22/05:23pm 32.6 27.4 12.8 30 12.0 N 32 44 17 24 1004.4 1001.6 0.0
22/05:00pm 31.1 28.6 15.1 38 10.0 N 22 32 12 17 1004.8 1002.0 0.0
22/04:47pm 31.8 27.9 14.4 34 10.8 NE 28 46 15 25 1004.7 1001.9 0.0
22/04:30pm 33.0 27.5 12.6 29 12.4 NE 33 46 18 25 1004.2 1001.4 0.0
22/04:13pm 34.7 30.7 9.2 21 14.8 SE 20 46 11 25 1002.5 999.7 0.0
22/04:00pm 37.9 33.1 4.7 13 18.3 W 19 26 10 14 1001.7 998.9 0.0
22/03:30pm 37.7 31.6 4.6 13 18.1 WNW 26 46 14 25 1001.9 999.1 0.0
22/03:21pm 38.6 34.1 4.1 12 18.8 N 17 26 9 14 1001.7 998.9 0.0
22/03:03pm 37.8 28.4 2.3 11 18.8 N 41 67 22 36 1001.7 998.9 0.0
22/03:00pm 38.0 29.0 2.5 11 18.9 N 39 67 21 36 1001.5 998.7 0.0
22/02:30pm 34.7 26.9 11.2 24 14.0 NNW 43 72 23 39 1001.7 998.9 0.0
22/02:27pm 36.9 29.6 10.2 20 15.8 NNW 39 72 21 39 1001.7 998.9 0.0
22/02:09pm 37.9 31.5 8.6 17 17.1 NW 32 50 17 27 1001.3 998.5 0.0
22/02:00pm 39.0 32.2 7.7 15 18.1 NW 33 48 18 26 1001.0 998.3 0.0
22/01:58pm 39.6 32.8 7.1 14 18.6 NNW 32 46 17 25 1001.2 998.4 0.0
22/01:30pm 41.6 36.3 5.2 11 20.5 N 22 39 12 21 1001.0 998.3 0.0
22/01:00pm 42.6 36.5 4.6 10 21.4 NNW 26 43 14 23 1001.9 999.1 0.0
22/12:30pm 42.6 37.9 5.9 11 21.0 NNE 20 33 11 18 1002.7 1000.0 0.0
22/12:00pm 42.1 36.7 2.7 9 21.5 NE 20 30 11 16 1003.1 1000.4 0.0
22/11:30am 41.1 35.6 0.3 8 21.3 NNE 19 32 10 17 1003.7 1001.0 0.0
22/11:00am 40.9 35.4 1.8 9 20.9 NNE 20 32 11 17 1004.3 1001.5 0.0
22/10:30am 40.1 35.4 1.2 9 20.5 NE 15 28 8 15 1004.7 1001.9 0.0
22/10:00am 39.2 34.9 3.4 11 19.5 NE 15 33 8 18 1005.1 1002.3 0.0
22/09:30am 36.8 33.6 6.9 16 16.9 E 13 20 7 11 1005.5 1002.8 0.0
22/09:00am 35.1 33.3 8.0 19 15.5 E 7 13 4 7 1005.8 1003.1 0.0
22/08:30am 33.2 29.9 7.9 21 14.3 ESE 15 17 8 9 1006.0 1003.3 0.0
22/08:00am 31.6 28.5 7.3 22 13.5 ESE 13 17 7 9 1006.3 1003.6 0.0
22/07:30am 30.0 26.5 7.2 24 12.5 ESE 15 20 8 11 1006.4 1003.7 0.0
22/07:00am 29.2 26.1 7.2 25 12.1 ESE 13 17 7 9 1006.5 1003.8 0.0
22/06:30am 28.0 25.4 7.8 28 11.1 ESE 11 15 6 8 1006.4 1003.7 0.0
22/06:00am 27.8 24.4 7.6 28 11.1 E 15 20 8 11 1006.2 1003.5 0.0
22/05:30am 27.5 22.7 7.4 28 10.9 E 22 28 12 15 1005.8 1003.1 0.0
22/05:00am 27.6 24.6 10.8 35 9.7 ESE 17 24 9 13 1005.2 1002.5 0.0
22/04:30am 27.6 26.0 11.6 37 9.3 ESE 11 15 6 8 1005.0 1002.2 0.0
22/04:00am 27.8 26.4 12.2 38 9.2 E 11 13 6 7 1005.0 1002.2 0.0
22/03:30am 28.8 26.1 11.8 35 10.0 SE 17 22 9 12 1004.5 1001.7 0.0
22/03:00am 29.2 28.6 11.7 34 10.3 SSE 6 11 3 6 1004.3 1001.5 0.0
22/02:30am 29.4 27.5 11.9 34 10.3 SSE 13 17 7 9 1004.5 1001.7 0.0
22/02:00am 29.8 28.7 11.8 33 10.7 S 9 13 5 7 1004.9 1002.1 0.0
22/01:30am 30.3 27.2 12.2 33 10.8 N 20 32 11 17 1005.1 1002.3 0.0
22/01:00am 29.8 27.4 12.7 35 10.3 ESE 17 20 9 11 1004.6 1001.8 0.0
22/12:30am 30.0 27.5 12.4 34 10.5 ESE 17 24 9 13 1005.0 1002.2 0.0
22/12:00am 30.8 28.3 12.2 32 11.1 ESE 17 24 9 13 1005.3 1002.6 0.0
 
Date/Time
WST
Temp
°C
App
Temp
°C
Dew
Point
°C
Rel
Hum
%
Delta-T
°C
Wind Press
QNH
hPa
Press
MSL
hPa
Rain since
9am
mm
Dir  Spd
km/h
Gust
km/h
Spd
kts
Gust
kts
21/11:30pm 31.4 29.0 10.2 27 12.3 SE 13 22 7 12 1005.6 1002.9 0.0
21/11:00pm 31.5 30.4 10.8 28 12.2 SE 7 9 4 5 1005.5 1002.8 0.0
21/10:30pm 32.1 30.5 10.2 26 12.7 S 9 13 5 7 1005.8 1003.1 0.0
21/10:00pm 33.7 31.0 9.0 22 14.2 NNE 13 19 7 10 1005.9 1003.2 0.0
21/09:30pm 34.3 31.7 9.5 22 14.4 NNE 13 15 7 8 1005.7 1003.0 0.0
21/09:00pm 33.9 31.2 11.7 26 13.3 N 17 24 9 13 1005.8 1003.1 0.0
21/08:30pm 33.6 28.1 12.0 27 13.0 N 32 43 17 23 1006.1 1003.4 0.0
21/08:14pm 35.4 30.4 9.7 21 15.0 NNE 26 52 14 28 1005.9 1003.2 0.0
21/08:00pm 36.9 32.4 8.7 18 16.4 NNE 22 30 12 16 1005.2 1002.5 0.0
21/07:30pm 37.0 32.9 7.9 17 16.7 NE 19 30 10 16 1004.7 1001.9 0.0
21/07:00pm 39.6 36.7 4.9 12 19.3 S 9 22 5 12 1004.2 1001.4 0.0
21/06:30pm 40.7 38.1 3.1 10 20.4 SSW 6 13 3 7 1003.7 1001.0 0.0
21/06:00pm 40.7 36.7 3.1 10 20.5 WSW 13 28 7 15 1003.5 1000.8 0.0
21/05:30pm 40.7 35.6 3.1 10 20.4 WSW 19 26 10 14 1003.4 1000.7 0.0
21/05:00pm 41.6 38.2 3.8 10 20.9 SSW 11 20 6 11 1003.3 1000.6 0.0
21/04:30pm 41.3 36.3 3.6 10 20.7 WSW 19 28 10 15 1003.4 1000.7 0.0
21/04:00pm 42.0 38.0 2.6 9 21.5 WNW 13 24 7 13 1003.5 1000.8 0.0
21/03:30pm 41.7 37.9 3.9 10 20.9 NNW 13 24 7 13 1003.9 1001.2 0.0
21/03:00pm 41.7 36.2 3.9 10 21.0 W 22 35 12 19 1004.6 1001.8 0.0
21/02:30pm 40.8 35.5 3.2 10 20.5 W 20 35 11 19 1005.0 1002.2 0.0
21/02:00pm 42.0 36.1 4.1 10 21.1 WNW 24 37 13 20 1005.3 1002.6 0.0
21/01:38pm 41.1 36.3 4.8 11 20.3 NW 19 41 10 22 1005.6 1002.9 0.0
21/01:30pm 40.8 37.1 4.6 11 20.1 WNW 13 30 7 16 1005.7 1003.0 0.0
21/01:00pm 39.9 36.3 5.1 12 19.5 W 13 20 7 11 1006.1 1003.4 0.0
21/12:30pm 40.0 34.4 5.2 12 19.4 WSW 24 37 13 20 1006.4 1003.7 0.0
21/12:00pm 40.8 36.4 4.6 11 20.2 WNW 17 28 9 15 1006.6 1003.9 0.0
21/11:30am 39.5 34.7 4.8 12 19.2 NW 19 35 10 19 1007.1 1004.3 0.0
21/11:00am 38.7 34.2 4.2 12 18.9 WNW 17 30 9 16 1007.5 1004.7 0.0
21/10:30am 37.5 33.8 4.4 13 18.1 NW 13 19 7 10 1007.9 1005.2 0.0
21/10:00am 36.5 34.2 4.7 14 17.4 NNW 6 15 3 8 1008.2 1005.5 0.0
21/09:30am 35.8 34.1 4.2 14 17.0 WNW 2 9 1 5 1008.3 1005.6 0.0
21/09:00am 34.6 32.2 4.2 15 16.3 NNE 6 13 3 7 1008.4 1005.7 0.0
21/08:30am 34.0 31.5 4.6 16 15.8 ESE 7 13 4 7 1008.4 1005.7 0.0
21/08:00am 33.0 30.3 5.5 18 14.9 SE 9 17 5 9 1008.4 1005.7 0.0
21/07:30am 32.4 29.1 6.6 20 14.2 SSE 13 17 7 9 1008.5 1005.8 0.0
21/07:00am 30.9 28.0 8.0 24 12.8 SSE 13 17 7 9 1008.4 1005.7 0.0
21/06:30am 29.5 27.5 8.5 27 11.7 SE 9 11 5 6 1008.2 1005.5 0.0
21/06:00am 27.6 26.2 9.0 31 10.4 SSE 6 7 3 4 1008.2 1005.5 0.0
21/05:30am 25.9 24.2 8.4 33 9.6 E 7 7 4 4 1008.0 1005.3 0.0
21/05:00am 26.0 24.5 8.5 33 9.6 SSE 6 9 3 5 1008.1 1005.4 0.0
21/04:30am 27.3 25.2 8.2 30 10.5 SSE 9 11 5 6 1008.0 1005.3 0.0
21/04:00am 28.4 28.0 8.1 28 11.2 CALM 0 0 0 0 1008.1 1005.4 0.0
21/03:30am 29.7 28.0 8.2 26 12.0 NW 7 11 4 6 1008.5 1005.8 0.0
21/03:00am 30.3 27.8 8.1 25 12.4 WNW 11 15 6 8 1008.5 1005.8 0.0
21/02:30am 30.4 27.1 8.2 25 12.4 NNE 15 20 8 11 1007.9 1005.2 0.0
21/02:00am 30.2 27.9 9.1 27 12.0 NNE 11 17 6 9 1007.9 1005.2 0.0
21/01:30am 29.6 28.0 8.6 27 11.8 ENE 7 11 4 6 1007.8 1005.1 0.0
21/01:00am 29.4 26.6 8.5 27 11.7 E 13 15 7 8 1007.6 1004.9 0.0
21/12:30am 29.7 28.8 7.6 25 12.2 ESE 2 6 1 3 1008.0 1005.3 0.0
21/12:00am 31.0 28.5 8.1 24 12.8 E 11 15 6 8 1008.0 1005.3 0.0
 
Date/Time
WST
Temp
°C
App
Temp
°C
Dew
Point
°C
Rel
Hum
%
Delta-T
°C
Wind Press
QNH
hPa
Press
MSL
hPa
Rain since
9am
mm
Dir  Spd
km/h
Gust
km/h
Spd
kts
Gust
kts
20/11:30pm 31.6 28.8 8.6 24 13.0 SE 13 17 7 9 1008.5 1005.8 0.0

Other formats

Comma delimited format used in spreadsheet applications
http://www.bom.gov.au/fwo/IDW60801/IDW60801.94450.axf

JavaScript Object Notation format (JSON) in row-major order
http://www.bom.gov.au/fwo/IDW60801/IDW60801.94450.json

Data quality

Most of these data are generated automatically and are frequently updated. Quality checks on data are not normally performed. It is possible for incorrect values to appear. Refer to information at About Latest Weather Observations and please check the disclaimer before using these data.